Hlavní strana
METAR-TAF:

METAR-TAF

Letiště :

Norfolk International Airport

Norfolk, Virginie, Spojené státy americké

zeměpisná šířka: 36-54-13N, zeměpisná délka: 076-11-31W, výška: 8 m

Aktuální stav počasí

Zpráva byla vytvořena před 33 minutami, v 17:51 UTC
Západní vítr 12 kt s nárazy do 21 kt
Teplota 9°C
Vlhkost vzduchu 34%
Tlak 1011 hPa
Viditelnost: 16.1 km
Jasno

METAR: KORF 271751Z 27012G21KT 10SM CLR 09/M06 A2986 RMK AO2 SLP110 T00941061 10100 20067 51011

Čas: 13:24 (18:24 UTC)

Předpověď počasí

Zpráva byla vytvořena před 1 hodinou a 4 minutami, v 17:20 UTC
Předpověď platná od 27 v 18 UTC do 28 v 18 UTC
Západní vítr 13 kt s nárazy do 23 kt
Viditelnost: 10 km
Skoro jasno ve výšce 6000 ft
Od 27 v 2300 UTC
Západojihozápadní vítr 11 kt s nárazy do 18 kt
Viditelnost: 10 km
Jasno
Od 28 v 1600 UTC
Jihozápadní vítr 12 kt s nárazy do 20 kt
Viditelnost: 10 km
Oblačno až skoro zataženo ve výšce 12000 ft

TAF: KORF 271720Z 2718/2818 28013G23KT P6SM FEW060 FM272300 25011G18KT P6SM SKC FM281600 23012G20KT P6SM BKN120

Stav a předpovědi počasí z více než 4 000 letišť (zprávy METAR a TAF).

Červené a žluté tečky na mapě představují dostupné meteorologické stanice.

Když kurzor umístíte na tečku, zobrazí se název stanice.

Pak kliknutím zobrazíte stav a předpověď počasí.

Chcete-li změnit mapu, kliknutím na zelené tlačítko se znaménkem +mapu přiblížíte, kliknutím na zelené tlačítko se znaménkem – mapu oddálíte a kliknutím na zelené šipky přejdete na sousední mapy.


METAR-TAF: